sensor_id;sensor_type;location;lat;lon;timestamp;P1;durP1;ratioP1;P2;durP2;ratioP2
17347;SDS011;8791;50.876;4.342;2023-11-21T00:01:16;55.43;;;26.80;;
17347;SDS011;8791;50.876;4.342;2023-11-21T00:03:43;64.37;;;27.77;;
17347;SDS011;8791;50.876;4.342;2023-11-21T00:06:09;66.03;;;27.73;;
17347;SDS011;8791;50.876;4.342;2023-11-21T00:08:36;58.70;;;26.03;;
17347;SDS011;8791;50.876;4.342;2023-11-21T00:11:04;67.03;;;27.10;;
17347;SDS011;8791;50.876;4.342;2023-11-21T00:13:31;62.10;;;26.43;;
17347;SDS011;8791;50.876;4.342;2023-11-21T00:15:58;66.97;;;26.93;;
17347;SDS011;8791;50.876;4.342;2023-11-21T00:18:27;61.57;;;26.10;;
17347;SDS011;8791;50.876;4.342;2023-11-21T00:20:54;65.70;;;26.83;;
17347;SDS011;8791;50.876;4.342;2023-11-21T00:23:20;63.47;;;26.90;;
17347;SDS011;8791;50.876;4.342;2023-11-21T00:25:48;64.10;;;26.03;;
17347;SDS011;8791;50.876;4.342;2023-11-21T00:28:15;62.63;;;26.33;;
17347;SDS011;8791;50.876;4.342;2023-11-21T00:30:42;68.80;;;27.47;;
17347;SDS011;8791;50.876;4.342;2023-11-21T00:33:09;61.33;;;26.67;;
17347;SDS011;8791;50.876;4.342;2023-11-21T00:35:38;64.63;;;27.47;;
17347;SDS011;8791;50.876;4.342;2023-11-21T00:38:04;57.77;;;27.23;;
17347;SDS011;8791;50.876;4.342;2023-11-21T00:40:33;61.80;;;27.40;;
17347;SDS011;8791;50.876;4.342;2023-11-21T00:43:00;69.30;;;28.40;;
17347;SDS011;8791;50.876;4.342;2023-11-21T00:45:27;66.53;;;27.47;;
17347;SDS011;8791;50.876;4.342;2023-11-21T00:47:54;61.93;;;26.80;;
17347;SDS011;8791;50.876;4.342;2023-11-21T00:50:21;61.57;;;25.87;;
17347;SDS011;8791;50.876;4.342;2023-11-21T00:52:49;66.57;;;26.80;;
17347;SDS011;8791;50.876;4.342;2023-11-21T00:55:16;66.33;;;27.70;;
17347;SDS011;8791;50.876;4.342;2023-11-21T00:57:43;69.83;;;29.57;;
17347;SDS011;8791;50.876;4.342;2023-11-21T01:00:11;64.00;;;26.87;;
17347;SDS011;8791;50.876;4.342;2023-11-21T01:02:42;72.03;;;27.97;;
17347;SDS011;8791;50.876;4.342;2023-11-21T01:05:09;60.67;;;26.47;;
17347;SDS011;8791;50.876;4.342;2023-11-21T01:07:36;71.40;;;27.40;;
17347;SDS011;8791;50.876;4.342;2023-11-21T01:10:04;59.30;;;27.03;;
17347;SDS011;8791;50.876;4.342;2023-11-21T01:12:32;65.70;;;25.73;;
17347;SDS011;8791;50.876;4.342;2023-11-21T01:15:00;67.60;;;28.00;;
17347;SDS011;8791;50.876;4.342;2023-11-21T01:17:27;70.27;;;27.70;;
17347;SDS011;8791;50.876;4.342;2023-11-21T01:19:55;68.67;;;27.73;;
17347;SDS011;8791;50.876;4.342;2023-11-21T01:22:22;58.30;;;26.00;;
17347;SDS011;8791;50.876;4.342;2023-11-21T01:24:51;64.80;;;26.13;;
17347;SDS011;8791;50.876;4.342;2023-11-21T01:27:19;69.87;;;27.47;;
17347;SDS011;8791;50.876;4.342;2023-11-21T01:29:46;61.50;;;26.40;;
17347;SDS011;8791;50.876;4.342;2023-11-21T01:32:13;63.43;;;25.93;;
17347;SDS011;8791;50.876;4.342;2023-11-21T01:34:40;58.03;;;25.03;;
17347;SDS011;8791;50.876;4.342;2023-11-21T01:37:06;55.67;;;26.37;;
17347;SDS011;8791;50.876;4.342;2023-11-21T01:39:34;59.67;;;26.27;;
17347;SDS011;8791;50.876;4.342;2023-11-21T01:42:04;60.03;;;25.20;;
17347;SDS011;8791;50.876;4.342;2023-11-21T01:44:34;61.23;;;26.03;;
17347;SDS011;8791;50.876;4.342;2023-11-21T01:47:01;61.13;;;26.10;;
17347;SDS011;8791;50.876;4.342;2023-11-21T01:49:30;59.27;;;26.20;;
17347;SDS011;8791;50.876;4.342;2023-11-21T01:51:58;61.97;;;26.60;;
17347;SDS011;8791;50.876;4.342;2023-11-21T01:54:25;55.20;;;24.87;;
17347;SDS011;8791;50.876;4.342;2023-11-21T01:56:56;58.00;;;24.90;;
17347;SDS011;8791;50.876;4.342;2023-11-21T01:59:33;53.70;;;24.43;;
17347;SDS011;8791;50.876;4.342;2023-11-21T02:02:02;57.23;;;24.83;;
17347;SDS011;8791;50.876;4.342;2023-11-21T02:04:30;51.83;;;23.10;;
17347;SDS011;8791;50.876;4.342;2023-11-21T02:06:59;53.50;;;23.83;;
17347;SDS011;8791;50.876;4.342;2023-11-21T02:09:26;58.23;;;24.03;;
17347;SDS011;8791;50.876;4.342;2023-11-21T02:11:55;46.83;;;21.50;;
17347;SDS011;8791;50.876;4.342;2023-11-21T02:14:25;51.83;;;22.27;;
17347;SDS011;8791;50.876;4.342;2023-11-21T02:16:54;48.17;;;22.10;;
17347;SDS011;8791;50.876;4.342;2023-11-21T02:19:22;42.20;;;21.27;;
17347;SDS011;8791;50.876;4.342;2023-11-21T02:21:50;49.00;;;20.73;;
17347;SDS011;8791;50.876;4.342;2023-11-21T02:24:20;40.33;;;21.70;;
17347;SDS011;8791;50.876;4.342;2023-11-21T02:26:47;46.93;;;20.03;;
17347;SDS011;8791;50.876;4.342;2023-11-21T02:29:16;43.13;;;19.90;;
17347;SDS011;8791;50.876;4.342;2023-11-21T02:31:43;42.97;;;20.23;;
17347;SDS011;8791;50.876;4.342;2023-11-21T02:34:14;38.70;;;19.97;;
17347;SDS011;8791;50.876;4.342;2023-11-21T02:36:41;38.90;;;19.40;;
17347;SDS011;8791;50.876;4.342;2023-11-21T02:39:08;43.43;;;18.80;;
17347;SDS011;8791;50.876;4.342;2023-11-21T02:41:37;38.03;;;18.97;;
17347;SDS011;8791;50.876;4.342;2023-11-21T02:44:04;31.87;;;17.63;;
17347;SDS011;8791;50.876;4.342;2023-11-21T02:46:32;37.90;;;17.03;;
17347;SDS011;8791;50.876;4.342;2023-11-21T02:48:59;41.00;;;16.90;;
17347;SDS011;8791;50.876;4.342;2023-11-21T02:51:26;42.93;;;18.03;;
17347;SDS011;8791;50.876;4.342;2023-11-21T02:53:53;34.20;;;16.97;;
17347;SDS011;8791;50.876;4.342;2023-11-21T02:56:23;31.93;;;16.03;;
17347;SDS011;8791;50.876;4.342;2023-11-21T02:59:01;31.83;;;15.93;;
17347;SDS011;8791;50.876;4.342;2023-11-21T03:01:28;33.50;;;16.63;;
17347;SDS011;8791;50.876;4.342;2023-11-21T03:03:57;32.27;;;15.33;;
17347;SDS011;8791;50.876;4.342;2023-11-21T03:06:24;37.63;;;15.43;;
17347;SDS011;8791;50.876;4.342;2023-11-21T03:08:51;35.47;;;15.63;;
17347;SDS011;8791;50.876;4.342;2023-11-21T03:11:18;34.77;;;16.27;;
17347;SDS011;8791;50.876;4.342;2023-11-21T03:13:53;38.87;;;17.17;;
17347;SDS011;8791;50.876;4.342;2023-11-21T03:16:21;40.27;;;17.10;;
17347;SDS011;8791;50.876;4.342;2023-11-21T03:18:48;37.83;;;18.20;;
17347;SDS011;8791;50.876;4.342;2023-11-21T03:21:17;42.43;;;18.13;;
17347;SDS011;8791;50.876;4.342;2023-11-21T03:23:50;38.53;;;17.90;;
17347;SDS011;8791;50.876;4.342;2023-11-21T03:26:17;32.97;;;16.90;;
17347;SDS011;8791;50.876;4.342;2023-11-21T03:28:44;37.20;;;17.03;;
17347;SDS011;8791;50.876;4.342;2023-11-21T03:31:11;38.30;;;17.17;;
17347;SDS011;8791;50.876;4.342;2023-11-21T03:33:39;40.60;;;17.70;;
17347;SDS011;8791;50.876;4.342;2023-11-21T03:36:06;32.63;;;16.80;;
17347;SDS011;8791;50.876;4.342;2023-11-21T03:38:34;35.33;;;16.40;;
17347;SDS011;8791;50.876;4.342;2023-11-21T03:41:01;43.97;;;18.77;;
17347;SDS011;8791;50.876;4.342;2023-11-21T03:43:28;43.77;;;18.37;;
17347;SDS011;8791;50.876;4.342;2023-11-21T03:45:55;41.67;;;17.67;;
17347;SDS011;8791;50.876;4.342;2023-11-21T03:48:21;39.23;;;19.77;;
17347;SDS011;8791;50.876;4.342;2023-11-21T03:50:50;48.33;;;20.00;;
17347;SDS011;8791;50.876;4.342;2023-11-21T03:53:16;44.00;;;19.50;;
17347;SDS011;8791;50.876;4.342;2023-11-21T03:55:43;42.97;;;21.20;;
17347;SDS011;8791;50.876;4.342;2023-11-21T03:58:10;48.43;;;19.60;;
17347;SDS011;8791;50.876;4.342;2023-11-21T04:00:37;39.73;;;20.43;;
17347;SDS011;8791;50.876;4.342;2023-11-21T04:03:04;38.37;;;19.63;;
17347;SDS011;8791;50.876;4.342;2023-11-21T04:05:31;42.83;;;19.73;;
17347;SDS011;8791;50.876;4.342;2023-11-21T04:07:59;45.37;;;20.67;;
17347;SDS011;8791;50.876;4.342;2023-11-21T04:10:26;45.57;;;20.63;;
17347;SDS011;8791;50.876;4.342;2023-11-21T04:12:53;43.50;;;20.30;;
17347;SDS011;8791;50.876;4.342;2023-11-21T04:15:20;39.93;;;20.27;;
17347;SDS011;8791;50.876;4.342;2023-11-21T04:17:47;44.37;;;20.70;;
17347;SDS011;8791;50.876;4.342;2023-11-21T04:20:14;44.13;;;20.17;;
17347;SDS011;8791;50.876;4.342;2023-11-21T04:22:42;46.47;;;21.10;;
17347;SDS011;8791;50.876;4.342;2023-11-21T04:25:12;50.57;;;21.40;;
17347;SDS011;8791;50.876;4.342;2023-11-21T04:27:40;43.17;;;21.13;;
17347;SDS011;8791;50.876;4.342;2023-11-21T04:30:09;38.87;;;20.70;;
17347;SDS011;8791;50.876;4.342;2023-11-21T04:32:36;34.73;;;19.60;;
17347;SDS011;8791;50.876;4.342;2023-11-21T04:35:04;38.83;;;19.70;;
17347;SDS011;8791;50.876;4.342;2023-11-21T04:37:32;39.87;;;20.53;;
17347;SDS011;8791;50.876;4.342;2023-11-21T04:39:59;43.53;;;21.23;;
17347;SDS011;8791;50.876;4.342;2023-11-21T04:42:27;48.00;;;22.97;;
17347;SDS011;8791;50.876;4.342;2023-11-21T04:44:54;40.43;;;21.97;;
17347;SDS011;8791;50.876;4.342;2023-11-21T04:47:21;43.23;;;22.70;;
17347;SDS011;8791;50.876;4.342;2023-11-21T04:49:48;39.40;;;22.63;;
17347;SDS011;8791;50.876;4.342;2023-11-21T04:52:15;52.40;;;24.07;;
17347;SDS011;8791;50.876;4.342;2023-11-21T04:54:41;47.07;;;21.87;;
17347;SDS011;8791;50.876;4.342;2023-11-21T04:57:09;45.70;;;23.13;;
17347;SDS011;8791;50.876;4.342;2023-11-21T04:59:37;43.47;;;22.83;;
17347;SDS011;8791;50.876;4.342;2023-11-21T05:02:04;53.60;;;24.17;;
17347;SDS011;8791;50.876;4.342;2023-11-21T05:04:31;49.03;;;24.57;;
17347;SDS011;8791;50.876;4.342;2023-11-21T05:06:58;52.13;;;24.60;;
17347;SDS011;8791;50.876;4.342;2023-11-21T05:09:25;48.10;;;24.40;;
17347;SDS011;8791;50.876;4.342;2023-11-21T05:11:53;52.33;;;23.87;;
17347;SDS011;8791;50.876;4.342;2023-11-21T05:14:21;47.93;;;23.50;;
17347;SDS011;8791;50.876;4.342;2023-11-21T05:16:49;51.63;;;25.07;;
17347;SDS011;8791;50.876;4.342;2023-11-21T05:19:17;50.87;;;25.53;;
17347;SDS011;8791;50.876;4.342;2023-11-21T05:21:43;47.80;;;25.07;;
17347;SDS011;8791;50.876;4.342;2023-11-21T05:24:11;53.53;;;26.53;;
17347;SDS011;8791;50.876;4.342;2023-11-21T05:26:38;57.00;;;25.97;;
17347;SDS011;8791;50.876;4.342;2023-11-21T05:29:05;57.87;;;24.97;;
17347;SDS011;8791;50.876;4.342;2023-11-21T05:31:31;48.43;;;24.63;;
17347;SDS011;8791;50.876;4.342;2023-11-21T05:34:00;52.60;;;25.47;;
17347;SDS011;8791;50.876;4.342;2023-11-21T05:36:26;54.57;;;26.07;;
17347;SDS011;8791;50.876;4.342;2023-11-21T05:38:53;48.40;;;25.43;;
17347;SDS011;8791;50.876;4.342;2023-11-21T05:41:20;52.20;;;25.43;;
17347;SDS011;8791;50.876;4.342;2023-11-21T05:43:48;55.50;;;25.60;;
17347;SDS011;8791;50.876;4.342;2023-11-21T05:46:15;56.77;;;26.53;;
17347;SDS011;8791;50.876;4.342;2023-11-21T05:48:43;54.43;;;24.83;;
17347;SDS011;8791;50.876;4.342;2023-11-21T05:51:11;60.47;;;26.40;;
17347;SDS011;8791;50.876;4.342;2023-11-21T05:53:39;53.50;;;26.83;;
17347;SDS011;8791;50.876;4.342;2023-11-21T05:56:06;52.97;;;25.17;;
17347;SDS011;8791;50.876;4.342;2023-11-21T05:58:33;48.73;;;24.63;;
17347;SDS011;8791;50.876;4.342;2023-11-21T06:01:00;51.87;;;25.13;;
17347;SDS011;8791;50.876;4.342;2023-11-21T06:03:27;47.40;;;25.17;;
17347;SDS011;8791;50.876;4.342;2023-11-21T06:05:54;51.40;;;25.03;;
17347;SDS011;8791;50.876;4.342;2023-11-21T06:08:23;49.33;;;24.70;;
17347;SDS011;8791;50.876;4.342;2023-11-21T06:10:49;48.50;;;24.23;;
17347;SDS011;8791;50.876;4.342;2023-11-21T06:13:17;43.87;;;24.50;;
17347;SDS011;8791;50.876;4.342;2023-11-21T06:15:49;53.10;;;25.73;;
17347;SDS011;8791;50.876;4.342;2023-11-21T06:18:16;52.73;;;25.67;;
17347;SDS011;8791;50.876;4.342;2023-11-21T06:20:44;55.97;;;26.10;;
17347;SDS011;8791;50.876;4.342;2023-11-21T06:23:11;47.73;;;24.17;;
17347;SDS011;8791;50.876;4.342;2023-11-21T06:25:40;52.17;;;25.47;;
17347;SDS011;8791;50.876;4.342;2023-11-21T06:28:07;44.10;;;25.03;;
17347;SDS011;8791;50.876;4.342;2023-11-21T06:30:34;54.57;;;24.47;;
17347;SDS011;8791;50.876;4.342;2023-11-21T06:33:01;53.27;;;24.10;;
17347;SDS011;8791;50.876;4.342;2023-11-21T06:35:28;51.43;;;25.73;;
17347;SDS011;8791;50.876;4.342;2023-11-21T06:37:57;49.63;;;24.37;;
17347;SDS011;8791;50.876;4.342;2023-11-21T06:40:24;43.60;;;22.90;;
17347;SDS011;8791;50.876;4.342;2023-11-21T06:42:52;51.63;;;24.60;;
17347;SDS011;8791;50.876;4.342;2023-11-21T06:45:19;53.17;;;24.10;;
17347;SDS011;8791;50.876;4.342;2023-11-21T06:47:46;48.07;;;25.97;;
17347;SDS011;8791;50.876;4.342;2023-11-21T06:50:13;55.73;;;23.97;;
17347;SDS011;8791;50.876;4.342;2023-11-21T06:52:40;50.17;;;24.90;;
17347;SDS011;8791;50.876;4.342;2023-11-21T06:55:08;57.13;;;25.53;;
17347;SDS011;8791;50.876;4.342;2023-11-21T06:57:35;43.97;;;25.00;;
17347;SDS011;8791;50.876;4.342;2023-11-21T07:00:08;54.73;;;25.17;;
17347;SDS011;8791;50.876;4.342;2023-11-21T07:02:35;45.93;;;23.90;;
17347;SDS011;8791;50.876;4.342;2023-11-21T07:05:02;50.27;;;25.47;;
17347;SDS011;8791;50.876;4.342;2023-11-21T07:07:29;45.63;;;24.73;;
17347;SDS011;8791;50.876;4.342;2023-11-21T07:09:56;49.67;;;25.27;;
17347;SDS011;8791;50.876;4.342;2023-11-21T07:12:28;50.27;;;25.17;;
17347;SDS011;8791;50.876;4.342;2023-11-21T07:14:55;56.00;;;26.43;;
17347;SDS011;8791;50.876;4.342;2023-11-21T07:17:24;47.07;;;25.60;;
17347;SDS011;8791;50.876;4.342;2023-11-21T07:19:51;59.40;;;26.17;;
17347;SDS011;8791;50.876;4.342;2023-11-21T07:22:18;49.30;;;25.00;;
17347;SDS011;8791;50.876;4.342;2023-11-21T07:24:47;58.10;;;26.57;;
17347;SDS011;8791;50.876;4.342;2023-11-21T07:27:15;48.60;;;24.70;;
17347;SDS011;8791;50.876;4.342;2023-11-21T07:29:42;56.97;;;25.77;;
17347;SDS011;8791;50.876;4.342;2023-11-21T07:32:09;54.37;;;23.13;;
17347;SDS011;8791;50.876;4.342;2023-11-21T07:34:39;58.63;;;26.47;;
17347;SDS011;8791;50.876;4.342;2023-11-21T07:37:07;61.20;;;27.33;;
17347;SDS011;8791;50.876;4.342;2023-11-21T07:39:35;63.23;;;27.20;;
17347;SDS011;8791;50.876;4.342;2023-11-21T07:42:02;53.03;;;26.13;;
17347;SDS011;8791;50.876;4.342;2023-11-21T07:44:29;70.23;;;27.27;;
17347;SDS011;8791;50.876;4.342;2023-11-21T07:46:56;55.30;;;26.07;;
17347;SDS011;8791;50.876;4.342;2023-11-21T07:49:23;56.70;;;26.63;;
17347;SDS011;8791;50.876;4.342;2023-11-21T07:51:53;59.73;;;26.30;;
17347;SDS011;8791;50.876;4.342;2023-11-21T07:54:19;64.87;;;26.30;;
17347;SDS011;8791;50.876;4.342;2023-11-21T07:56:46;60.97;;;25.97;;
17347;SDS011;8791;50.876;4.342;2023-11-21T07:59:13;56.77;;;26.43;;
17347;SDS011;8791;50.876;4.342;2023-11-21T08:01:40;57.73;;;27.53;;
17347;SDS011;8791;50.876;4.342;2023-11-21T08:04:08;59.83;;;25.07;;
17347;SDS011;8791;50.876;4.342;2023-11-21T08:06:35;55.53;;;26.43;;
17347;SDS011;8791;50.876;4.342;2023-11-21T08:09:03;59.87;;;27.07;;
17347;SDS011;8791;50.876;4.342;2023-11-21T08:11:30;72.43;;;26.70;;
17347;SDS011;8791;50.876;4.342;2023-11-21T08:13:58;66.57;;;28.07;;
17347;SDS011;8791;50.876;4.342;2023-11-21T08:16:25;66.60;;;26.47;;
17347;SDS011;8791;50.876;4.342;2023-11-21T08:18:52;69.23;;;27.40;;
17347;SDS011;8791;50.876;4.342;2023-11-21T08:21:22;62.33;;;27.43;;
17347;SDS011;8791;50.876;4.342;2023-11-21T08:23:49;64.30;;;26.17;;
17347;SDS011;8791;50.876;4.342;2023-11-21T08:26:21;61.50;;;25.57;;
17347;SDS011;8791;50.876;4.342;2023-11-21T08:28:48;62.77;;;25.63;;
17347;SDS011;8791;50.876;4.342;2023-11-21T08:31:17;57.37;;;25.97;;
17347;SDS011;8791;50.876;4.342;2023-11-21T08:33:49;57.67;;;26.60;;
17347;SDS011;8791;50.876;4.342;2023-11-21T08:36:16;65.50;;;27.13;;
17347;SDS011;8791;50.876;4.342;2023-11-21T08:38:43;70.50;;;27.77;;
17347;SDS011;8791;50.876;4.342;2023-11-21T08:41:10;74.57;;;27.00;;
17347;SDS011;8791;50.876;4.342;2023-11-21T08:43:38;63.57;;;26.37;;
17347;SDS011;8791;50.876;4.342;2023-11-21T08:46:06;68.53;;;25.97;;
17347;SDS011;8791;50.876;4.342;2023-11-21T08:48:34;60.30;;;25.50;;
17347;SDS011;8791;50.876;4.342;2023-11-21T08:51:01;64.63;;;26.47;;
17347;SDS011;8791;50.876;4.342;2023-11-21T08:53:30;63.53;;;24.73;;
17347;SDS011;8791;50.876;4.342;2023-11-21T08:55:57;64.90;;;25.77;;
17347;SDS011;8791;50.876;4.342;2023-11-21T08:58:24;68.47;;;26.43;;
17347;SDS011;8791;50.876;4.342;2023-11-21T09:00:53;59.07;;;25.53;;
17347;SDS011;8791;50.876;4.342;2023-11-21T09:03:20;77.17;;;26.87;;
17347;SDS011;8791;50.876;4.342;2023-11-21T09:05:47;72.43;;;27.30;;
17347;SDS011;8791;50.876;4.342;2023-11-21T09:08:13;79.53;;;27.07;;
17347;SDS011;8791;50.876;4.342;2023-11-21T09:10:40;78.77;;;26.77;;
17347;SDS011;8791;50.876;4.342;2023-11-21T09:13:08;77.97;;;27.60;;
17347;SDS011;8791;50.876;4.342;2023-11-21T09:15:35;76.60;;;27.40;;
17347;SDS011;8791;50.876;4.342;2023-11-21T09:18:04;65.50;;;24.60;;
17347;SDS011;8791;50.876;4.342;2023-11-21T09:20:31;72.07;;;25.57;;
17347;SDS011;8791;50.876;4.342;2023-11-21T09:22:58;64.13;;;24.17;;
17347;SDS011;8791;50.876;4.342;2023-11-21T09:25:25;66.37;;;24.77;;
17347;SDS011;8791;50.876;4.342;2023-11-21T09:27:53;54.30;;;23.40;;
17347;SDS011;8791;50.876;4.342;2023-11-21T09:30:21;56.40;;;24.03;;
17347;SDS011;8791;50.876;4.342;2023-11-21T09:32:49;65.13;;;25.93;;
17347;SDS011;8791;50.876;4.342;2023-11-21T09:35:17;55.77;;;24.07;;
17347;SDS011;8791;50.876;4.342;2023-11-21T09:37:44;55.80;;;24.00;;
17347;SDS011;8791;50.876;4.342;2023-11-21T09:40:12;61.53;;;23.60;;
17347;SDS011;8791;50.876;4.342;2023-11-21T09:42:43;55.90;;;23.47;;
17347;SDS011;8791;50.876;4.342;2023-11-21T09:45:17;61.70;;;24.00;;
17347;SDS011;8791;50.876;4.342;2023-11-21T09:47:48;58.57;;;24.17;;
17347;SDS011;8791;50.876;4.342;2023-11-21T09:50:18;57.67;;;22.10;;
17347;SDS011;8791;50.876;4.342;2023-11-21T09:52:48;56.90;;;23.17;;
17347;SDS011;8791;50.876;4.342;2023-11-21T09:55:26;40.57;;;20.03;;
17347;SDS011;8791;50.876;4.342;2023-11-21T09:57:55;42.53;;;19.23;;
17347;SDS011;8791;50.876;4.342;2023-11-21T10:00:23;39.80;;;18.60;;
17347;SDS011;8791;50.876;4.342;2023-11-21T10:02:50;33.67;;;18.43;;
17347;SDS011;8791;50.876;4.342;2023-11-21T10:05:19;31.87;;;18.57;;
17347;SDS011;8791;50.876;4.342;2023-11-21T10:07:47;34.50;;;18.40;;
17347;SDS011;8791;50.876;4.342;2023-11-21T10:10:16;29.90;;;18.27;;
17347;SDS011;8791;50.876;4.342;2023-11-21T10:12:45;37.40;;;19.70;;
17347;SDS011;8791;50.876;4.342;2023-11-21T10:15:18;37.20;;;19.33;;
17347;SDS011;8791;50.876;4.342;2023-11-21T10:17:48;38.47;;;20.23;;
17347;SDS011;8791;50.876;4.342;2023-11-21T10:20:19;34.57;;;20.33;;
17347;SDS011;8791;50.876;4.342;2023-11-21T10:22:46;44.40;;;21.53;;
17347;SDS011;8791;50.876;4.342;2023-11-21T10:25:13;46.50;;;23.75;;
17347;SDS011;8791;50.876;4.342;2023-11-21T10:27:40;44.03;;;22.33;;
17347;SDS011;8791;50.876;4.342;2023-11-21T10:30:08;42.67;;;22.03;;
17347;SDS011;8791;50.876;4.342;2023-11-21T10:32:37;34.80;;;19.47;;
17347;SDS011;8791;50.876;4.342;2023-11-21T10:35:05;39.40;;;20.13;;
17347;SDS011;8791;50.876;4.342;2023-11-21T10:37:36;36.67;;;19.97;;
17347;SDS011;8791;50.876;4.342;2023-11-21T10:40:05;39.57;;;19.80;;
17347;SDS011;8791;50.876;4.342;2023-11-21T10:42:32;41.00;;;19.77;;
17347;SDS011;8791;50.876;4.342;2023-11-21T10:44:59;37.17;;;20.27;;
17347;SDS011;8791;50.876;4.342;2023-11-21T10:47:30;34.73;;;19.77;;
17347;SDS011;8791;50.876;4.342;2023-11-21T10:49:58;38.37;;;20.67;;
17347;SDS011;8791;50.876;4.342;2023-11-21T10:52:30;43.63;;;22.97;;
17347;SDS011;8791;50.876;4.342;2023-11-21T10:54:58;43.70;;;22.80;;
17347;SDS011;8791;50.876;4.342;2023-11-21T10:57:28;38.57;;;22.23;;
17347;SDS011;8791;50.876;4.342;2023-11-21T10:59:56;40.20;;;22.27;;
17347;SDS011;8791;50.876;4.342;2023-11-21T11:02:23;43.13;;;23.57;;
17347;SDS011;8791;50.876;4.342;2023-11-21T11:04:52;37.90;;;23.43;;
17347;SDS011;8791;50.876;4.342;2023-11-21T11:07:20;44.80;;;23.50;;
17347;SDS011;8791;50.876;4.342;2023-11-21T11:09:51;44.47;;;23.47;;
17347;SDS011;8791;50.876;4.342;2023-11-21T11:12:20;45.33;;;22.30;;
17347;SDS011;8791;50.876;4.342;2023-11-21T11:14:47;39.97;;;22.80;;
17347;SDS011;8791;50.876;4.342;2023-11-21T11:17:15;40.47;;;23.10;;
17347;SDS011;8791;50.876;4.342;2023-11-21T11:19:44;42.80;;;23.93;;
17347;SDS011;8791;50.876;4.342;2023-11-21T11:22:15;40.57;;;23.63;;
17347;SDS011;8791;50.876;4.342;2023-11-21T11:27:50;43.80;;;22.73;;
17347;SDS011;8791;50.876;4.342;2023-11-21T11:30:24;34.80;;;21.80;;
17347;SDS011;8791;50.876;4.342;2023-11-21T11:33:04;36.57;;;21.60;;
17347;SDS011;8791;50.876;4.342;2023-11-21T11:35:40;33.63;;;21.30;;
17347;SDS011;8791;50.876;4.342;2023-11-21T11:38:22;29.30;;;20.13;;
17347;SDS011;8791;50.876;4.342;2023-11-21T11:40:51;30.63;;;19.40;;
17347;SDS011;8791;50.876;4.342;2023-11-21T11:43:28;26.27;;;18.57;;
17347;SDS011;8791;50.876;4.342;2023-11-21T11:45:57;27.10;;;18.63;;
17347;SDS011;8791;50.876;4.342;2023-11-21T11:48:25;26.17;;;17.23;;
17347;SDS011;8791;50.876;4.342;2023-11-21T11:51:01;23.90;;;17.13;;
17347;SDS011;8791;50.876;4.342;2023-11-21T11:53:33;19.00;;;14.93;;
17347;SDS011;8791;50.876;4.342;2023-11-21T11:56:19;23.43;;;14.00;;
17347;SDS011;8791;50.876;4.342;2023-11-21T11:58:53;17.03;;;12.73;;
17347;SDS011;8791;50.876;4.342;2023-11-21T12:01:21;19.13;;;14.23;;
17347;SDS011;8791;50.876;4.342;2023-11-21T12:06:56;25.27;;;14.30;;
17347;SDS011;8791;50.876;4.342;2023-11-21T12:09:25;16.13;;;13.17;;
17347;SDS011;8791;50.876;4.342;2023-11-21T12:11:55;14.83;;;12.43;;
17347;SDS011;8791;50.876;4.342;2023-11-21T12:14:24;23.17;;;13.90;;
17347;SDS011;8791;50.876;4.342;2023-11-21T12:16:51;16.63;;;13.10;;
17347;SDS011;8791;50.876;4.342;2023-11-21T12:19:18;19.97;;;13.90;;
17347;SDS011;8791;50.876;4.342;2023-11-21T12:21:47;20.83;;;14.03;;
17347;SDS011;8791;50.876;4.342;2023-11-21T12:24:15;24.57;;;15.40;;
17347;SDS011;8791;50.876;4.342;2023-11-21T12:26:42;19.70;;;13.20;;
17347;SDS011;8791;50.876;4.342;2023-11-21T12:29:10;18.80;;;10.80;;
17347;SDS011;8791;50.876;4.342;2023-11-21T12:31:38;25.93;;;10.60;;
17347;SDS011;8791;50.876;4.342;2023-11-21T12:34:06;17.20;;;10.43;;
17347;SDS011;8791;50.876;4.342;2023-11-21T12:36:36;20.90;;;9.60;;
17347;SDS011;8791;50.876;4.342;2023-11-21T12:39:03;23.50;;;8.90;;
17347;SDS011;8791;50.876;4.342;2023-11-21T12:41:31;25.67;;;8.97;;
17347;SDS011;8791;50.876;4.342;2023-11-21T12:43:57;15.07;;;8.83;;
17347;SDS011;8791;50.876;4.342;2023-11-21T12:46:24;9.60;;;7.93;;
17347;SDS011;8791;50.876;4.342;2023-11-21T12:48:56;24.00;;;9.23;;
17347;SDS011;8791;50.876;4.342;2023-11-21T12:51:23;16.93;;;8.60;;
17347;SDS011;8791;50.876;4.342;2023-11-21T12:53:51;18.37;;;9.10;;
17347;SDS011;8791;50.876;4.342;2023-11-21T12:56:18;14.37;;;9.03;;
17347;SDS011;8791;50.876;4.342;2023-11-21T12:58:49;22.70;;;10.47;;
17347;SDS011;8791;50.876;4.342;2023-11-21T13:01:16;15.33;;;10.17;;
17347;SDS011;8791;50.876;4.342;2023-11-21T13:03:47;16.60;;;11.37;;
17347;SDS011;8791;50.876;4.342;2023-11-21T13:06:18;20.40;;;11.37;;
17347;SDS011;8791;50.876;4.342;2023-11-21T13:08:49;17.93;;;12.23;;
17347;SDS011;8791;50.876;4.342;2023-11-21T13:11:16;18.87;;;12.37;;
17347;SDS011;8791;50.876;4.342;2023-11-21T13:13:43;16.97;;;11.77;;
17347;SDS011;8791;50.876;4.342;2023-11-21T13:16:10;23.63;;;12.37;;
17347;SDS011;8791;50.876;4.342;2023-11-21T13:18:38;19.47;;;12.10;;
17347;SDS011;8791;50.876;4.342;2023-11-21T13:21:07;22.40;;;13.17;;
17347;SDS011;8791;50.876;4.342;2023-11-21T13:23:40;15.97;;;11.70;;
17347;SDS011;8791;50.876;4.342;2023-11-21T13:26:07;25.60;;;12.00;;
17347;SDS011;8791;50.876;4.342;2023-11-21T13:28:35;19.07;;;12.53;;
17347;SDS011;8791;50.876;4.342;2023-11-21T13:31:03;22.87;;;15.07;;
17347;SDS011;8791;50.876;4.342;2023-11-21T13:33:34;21.00;;;13.73;;
17347;SDS011;8791;50.876;4.342;2023-11-21T13:36:03;15.63;;;13.37;;
17347;SDS011;8791;50.876;4.342;2023-11-21T13:38:33;18.43;;;15.03;;
17347;SDS011;8791;50.876;4.342;2023-11-21T13:41:02;20.57;;;13.97;;
17347;SDS011;8791;50.876;4.342;2023-11-21T13:43:32;13.57;;;12.17;;
17347;SDS011;8791;50.876;4.342;2023-11-21T13:45:59;12.43;;;9.70;;
17347;SDS011;8791;50.876;4.342;2023-11-21T13:48:29;11.80;;;9.20;;
17347;SDS011;8791;50.876;4.342;2023-11-21T13:51:05;10.37;;;8.27;;
17347;SDS011;8791;50.876;4.342;2023-11-21T13:53:40;9.57;;;7.77;;
17347;SDS011;8791;50.876;4.342;2023-11-21T13:56:09;17.70;;;10.37;;
17347;SDS011;8791;50.876;4.342;2023-11-21T13:58:37;11.20;;;9.50;;
17347;SDS011;8791;50.876;4.342;2023-11-21T14:01:12;12.27;;;10.10;;
17347;SDS011;8791;50.876;4.342;2023-11-21T14:03:57;11.03;;;9.93;;
17347;SDS011;8791;50.876;4.342;2023-11-21T14:06:33;9.63;;;8.63;;
17347;SDS011;8791;50.876;4.342;2023-11-21T14:09:10;7.47;;;6.70;;
17347;SDS011;8791;50.876;4.342;2023-11-21T14:11:40;6.70;;;6.10;;
17347;SDS011;8791;50.876;4.342;2023-11-21T14:14:07;12.40;;;6.53;;
17347;SDS011;8791;50.876;4.342;2023-11-21T14:16:34;7.00;;;6.40;;
17347;SDS011;8791;50.876;4.342;2023-11-21T14:19:02;6.90;;;5.57;;
17347;SDS011;8791;50.876;4.342;2023-11-21T14:21:40;6.77;;;6.17;;
17347;SDS011;8791;50.876;4.342;2023-11-21T14:24:08;13.40;;;7.03;;
17347;SDS011;8791;50.876;4.342;2023-11-21T14:26:37;13.00;;;6.50;;
17347;SDS011;8791;50.876;4.342;2023-11-21T14:29:07;7.37;;;6.50;;
17347;SDS011;8791;50.876;4.342;2023-11-21T14:31:37;11.60;;;6.40;;
17347;SDS011;8791;50.876;4.342;2023-11-21T14:34:04;9.40;;;6.43;;
17347;SDS011;8791;50.876;4.342;2023-11-21T14:36:32;10.60;;;5.80;;
17347;SDS011;8791;50.876;4.342;2023-11-21T14:38:59;10.23;;;5.70;;
17347;SDS011;8791;50.876;4.342;2023-11-21T14:41:26;6.70;;;5.67;;
17347;SDS011;8791;50.876;4.342;2023-11-21T14:43:55;6.97;;;5.80;;
17347;SDS011;8791;50.876;4.342;2023-11-21T14:46:22;7.10;;;6.20;;
17347;SDS011;8791;50.876;4.342;2023-11-21T14:48:50;6.73;;;5.83;;